sensor_id;sensor_type;location;lat;lon;timestamp;P1;durP1;ratioP1;P2;durP2;ratioP2
32523;SDS011;18965;52.242;20.886;2023-06-26T00:00:29;14.13;;;6.05;;
32523;SDS011;18965;52.242;20.886;2023-06-26T00:02:54;17.85;;;7.07;;
32523;SDS011;18965;52.242;20.886;2023-06-26T00:05:20;7.95;;;4.90;;
32523;SDS011;18965;52.242;20.886;2023-06-26T00:07:46;13.02;;;6.43;;
32523;SDS011;18965;52.242;20.886;2023-06-26T00:10:12;11.07;;;5.50;;
32523;SDS011;18965;52.242;20.886;2023-06-26T00:12:38;13.02;;;6.10;;
32523;SDS011;18965;52.242;20.886;2023-06-26T00:15:04;14.40;;;6.45;;
32523;SDS011;18965;52.242;20.886;2023-06-26T00:17:30;10.27;;;4.90;;
32523;SDS011;18965;52.242;20.886;2023-06-26T00:20:01;11.10;;;5.45;;
32523;SDS011;18965;52.242;20.886;2023-06-26T00:22:27;10.23;;;5.47;;
32523;SDS011;18965;52.242;20.886;2023-06-26T00:24:53;9.45;;;5.28;;
32523;SDS011;18965;52.242;20.886;2023-06-26T00:27:19;9.90;;;5.43;;
32523;SDS011;18965;52.242;20.886;2023-06-26T00:29:44;9.25;;;4.90;;
32523;SDS011;18965;52.242;20.886;2023-06-26T00:32:10;7.65;;;4.97;;
32523;SDS011;18965;52.242;20.886;2023-06-26T00:34:36;9.70;;;5.30;;
32523;SDS011;18965;52.242;20.886;2023-06-26T00:37:01;9.95;;;5.35;;
32523;SDS011;18965;52.242;20.886;2023-06-26T00:39:27;15.13;;;7.05;;
32523;SDS011;18965;52.242;20.886;2023-06-26T00:41:53;9.73;;;6.03;;
32523;SDS011;18965;52.242;20.886;2023-06-26T00:44:19;8.93;;;5.70;;
32523;SDS011;18965;52.242;20.886;2023-06-26T00:46:45;9.90;;;5.50;;
32523;SDS011;18965;52.242;20.886;2023-06-26T00:49:11;10.27;;;5.63;;
32523;SDS011;18965;52.242;20.886;2023-06-26T00:51:38;9.23;;;5.60;;
32523;SDS011;18965;52.242;20.886;2023-06-26T00:54:03;15.38;;;6.93;;
32523;SDS011;18965;52.242;20.886;2023-06-26T00:56:30;9.18;;;5.50;;
32523;SDS011;18965;52.242;20.886;2023-06-26T00:58:56;11.05;;;5.97;;
32523;SDS011;18965;52.242;20.886;2023-06-26T01:01:22;10.82;;;5.95;;
32523;SDS011;18965;52.242;20.886;2023-06-26T01:03:50;11.77;;;6.07;;
32523;SDS011;18965;52.242;20.886;2023-06-26T01:06:18;12.55;;;6.68;;
32523;SDS011;18965;52.242;20.886;2023-06-26T01:08:46;13.55;;;6.95;;
32523;SDS011;18965;52.242;20.886;2023-06-26T01:11:13;11.52;;;5.80;;
32523;SDS011;18965;52.242;20.886;2023-06-26T01:13:40;11.15;;;6.00;;
32523;SDS011;18965;52.242;20.886;2023-06-26T01:16:07;14.70;;;6.88;;
32523;SDS011;18965;52.242;20.886;2023-06-26T01:18:34;16.08;;;7.03;;
32523;SDS011;18965;52.242;20.886;2023-06-26T01:21:02;9.50;;;5.72;;
32523;SDS011;18965;52.242;20.886;2023-06-26T01:26:19;17.00;;;6.95;;
32523;SDS011;18965;52.242;20.886;2023-06-26T01:28:46;17.65;;;6.18;;
32523;SDS011;18965;52.242;20.886;2023-06-26T01:31:13;16.00;;;6.07;;
32523;SDS011;18965;52.242;20.886;2023-06-26T01:33:41;17.20;;;7.35;;
32523;SDS011;18965;52.242;20.886;2023-06-26T01:36:07;20.05;;;7.22;;
32523;SDS011;18965;52.242;20.886;2023-06-26T01:38:33;22.00;;;7.93;;
32523;SDS011;18965;52.242;20.886;2023-06-26T01:41:02;17.20;;;6.70;;
32523;SDS011;18965;52.242;20.886;2023-06-26T01:52:40;9.90;;;6.05;;
32523;SDS011;18965;52.242;20.886;2023-06-26T01:55:14;11.55;;;6.35;;
32523;SDS011;18965;52.242;20.886;2023-06-26T01:57:45;13.77;;;6.30;;
32523;SDS011;18965;52.242;20.886;2023-06-26T02:00:13;14.70;;;6.65;;
32523;SDS011;18965;52.242;20.886;2023-06-26T02:02:43;15.45;;;6.63;;
32523;SDS011;18965;52.242;20.886;2023-06-26T02:05:09;15.68;;;6.50;;
32523;SDS011;18965;52.242;20.886;2023-06-26T02:07:35;18.02;;;6.90;;
32523;SDS011;18965;52.242;20.886;2023-06-26T02:10:01;18.42;;;6.63;;
32523;SDS011;18965;52.242;20.886;2023-06-26T02:12:27;26.38;;;7.45;;
32523;SDS011;18965;52.242;20.886;2023-06-26T02:14:53;18.05;;;7.75;;
32523;SDS011;18965;52.242;20.886;2023-06-26T02:17:18;32.03;;;9.52;;
32523;SDS011;18965;52.242;20.886;2023-06-26T02:19:44;16.92;;;7.22;;
32523;SDS011;18965;52.242;20.886;2023-06-26T02:22:13;16.00;;;6.95;;
32523;SDS011;18965;52.242;20.886;2023-06-26T02:24:40;24.33;;;7.25;;
32523;SDS011;18965;52.242;20.886;2023-06-26T02:27:06;16.58;;;6.88;;
32523;SDS011;18965;52.242;20.886;2023-06-26T02:29:32;21.92;;;7.70;;
32523;SDS011;18965;52.242;20.886;2023-06-26T02:31:58;28.52;;;8.32;;
32523;SDS011;18965;52.242;20.886;2023-06-26T02:34:23;20.70;;;7.50;;
32523;SDS011;18965;52.242;20.886;2023-06-26T02:36:49;21.50;;;7.93;;
32523;SDS011;18965;52.242;20.886;2023-06-26T02:39:15;15.13;;;6.80;;
32523;SDS011;18965;52.242;20.886;2023-06-26T02:41:41;16.33;;;7.65;;
32523;SDS011;18965;52.242;20.886;2023-06-26T02:44:08;18.88;;;7.13;;
32523;SDS011;18965;52.242;20.886;2023-06-26T02:46:36;12.35;;;6.70;;
32523;SDS011;18965;52.242;20.886;2023-06-26T02:49:02;19.75;;;7.53;;
32523;SDS011;18965;52.242;20.886;2023-06-26T02:51:27;15.07;;;6.20;;
32523;SDS011;18965;52.242;20.886;2023-06-26T02:53:53;16.50;;;7.30;;
32523;SDS011;18965;52.242;20.886;2023-06-26T02:56:19;10.32;;;5.78;;
32523;SDS011;18965;52.242;20.886;2023-06-26T02:58:44;21.52;;;7.03;;
32523;SDS011;18965;52.242;20.886;2023-06-26T03:01:10;13.93;;;6.03;;
32523;SDS011;18965;52.242;20.886;2023-06-26T03:03:36;12.18;;;6.57;;
32523;SDS011;18965;52.242;20.886;2023-06-26T03:06:08;13.90;;;5.73;;
32523;SDS011;18965;52.242;20.886;2023-06-26T03:08:37;21.63;;;7.43;;
32523;SDS011;18965;52.242;20.886;2023-06-26T03:11:06;24.90;;;7.93;;
32523;SDS011;18965;52.242;20.886;2023-06-26T03:13:33;18.85;;;6.72;;
32523;SDS011;18965;52.242;20.886;2023-06-26T03:15:59;22.80;;;9.18;;
32523;SDS011;18965;52.242;20.886;2023-06-26T03:18:25;10.43;;;5.97;;
32523;SDS011;18965;52.242;20.886;2023-06-26T03:20:51;15.68;;;6.97;;
32523;SDS011;18965;52.242;20.886;2023-06-26T03:23:19;12.95;;;6.65;;
32523;SDS011;18965;52.242;20.886;2023-06-26T03:25:45;14.25;;;6.57;;
32523;SDS011;18965;52.242;20.886;2023-06-26T03:28:11;11.57;;;6.32;;
32523;SDS011;18965;52.242;20.886;2023-06-26T03:30:37;14.00;;;6.63;;
32523;SDS011;18965;52.242;20.886;2023-06-26T03:33:02;19.02;;;7.82;;
32523;SDS011;18965;52.242;20.886;2023-06-26T03:35:28;18.75;;;7.25;;
32523;SDS011;18965;52.242;20.886;2023-06-26T03:37:54;19.25;;;8.30;;
32523;SDS011;18965;52.242;20.886;2023-06-26T03:40:20;12.65;;;7.25;;
32523;SDS011;18965;52.242;20.886;2023-06-26T03:42:45;17.65;;;8.10;;
32523;SDS011;18965;52.242;20.886;2023-06-26T03:45:11;14.02;;;7.38;;
32523;SDS011;18965;52.242;20.886;2023-06-26T03:47:37;20.27;;;8.95;;
32523;SDS011;18965;52.242;20.886;2023-06-26T03:50:02;17.23;;;8.63;;
32523;SDS011;18965;52.242;20.886;2023-06-26T03:52:29;17.50;;;9.65;;
32523;SDS011;18965;52.242;20.886;2023-06-26T03:54:56;14.35;;;8.68;;
32523;SDS011;18965;52.242;20.886;2023-06-26T03:57:22;15.77;;;8.90;;
32523;SDS011;18965;52.242;20.886;2023-06-26T03:59:48;14.90;;;8.77;;
32523;SDS011;18965;52.242;20.886;2023-06-26T04:02:14;15.68;;;8.75;;
32523;SDS011;18965;52.242;20.886;2023-06-26T04:04:40;13.32;;;7.93;;
32523;SDS011;18965;52.242;20.886;2023-06-26T04:07:06;14.15;;;8.63;;
32523;SDS011;18965;52.242;20.886;2023-06-26T04:09:31;15.77;;;8.68;;
32523;SDS011;18965;52.242;20.886;2023-06-26T04:11:57;14.20;;;9.43;;
32523;SDS011;18965;52.242;20.886;2023-06-26T04:14:23;15.38;;;8.88;;
32523;SDS011;18965;52.242;20.886;2023-06-26T04:16:48;19.05;;;9.90;;
32523;SDS011;18965;52.242;20.886;2023-06-26T04:19:14;15.05;;;9.15;;
32523;SDS011;18965;52.242;20.886;2023-06-26T04:21:40;14.63;;;8.77;;
32523;SDS011;18965;52.242;20.886;2023-06-26T04:24:06;13.48;;;7.93;;
32523;SDS011;18965;52.242;20.886;2023-06-26T04:26:32;15.10;;;8.40;;
32523;SDS011;18965;52.242;20.886;2023-06-26T04:28:58;16.45;;;9.18;;
32523;SDS011;18965;52.242;20.886;2023-06-26T04:31:24;13.85;;;7.93;;
32523;SDS011;18965;52.242;20.886;2023-06-26T04:33:50;12.63;;;8.63;;
32523;SDS011;18965;52.242;20.886;2023-06-26T04:36:19;12.30;;;7.78;;
32523;SDS011;18965;52.242;20.886;2023-06-26T04:38:44;17.15;;;9.45;;
32523;SDS011;18965;52.242;20.886;2023-06-26T04:41:10;11.60;;;8.02;;
32523;SDS011;18965;52.242;20.886;2023-06-26T04:43:36;12.65;;;7.65;;
32523;SDS011;18965;52.242;20.886;2023-06-26T04:46:02;16.17;;;8.88;;
32523;SDS011;18965;52.242;20.886;2023-06-26T04:48:28;15.07;;;9.63;;
32523;SDS011;18965;52.242;20.886;2023-06-26T04:50:56;16.10;;;8.50;;
32523;SDS011;18965;52.242;20.886;2023-06-26T04:53:22;13.18;;;8.80;;
32523;SDS011;18965;52.242;20.886;2023-06-26T04:55:48;12.73;;;8.27;;
32523;SDS011;18965;52.242;20.886;2023-06-26T04:58:15;11.93;;;7.95;;
32523;SDS011;18965;52.242;20.886;2023-06-26T05:00:41;15.88;;;8.55;;
32523;SDS011;18965;52.242;20.886;2023-06-26T05:03:13;13.75;;;8.48;;
32523;SDS011;18965;52.242;20.886;2023-06-26T05:05:39;12.35;;;7.00;;
32523;SDS011;18965;52.242;20.886;2023-06-26T05:08:15;9.13;;;7.13;;
32523;SDS011;18965;52.242;20.886;2023-06-26T05:10:42;8.90;;;6.93;;
32523;SDS011;18965;52.242;20.886;2023-06-26T05:13:08;9.48;;;7.05;;
32523;SDS011;18965;52.242;20.886;2023-06-26T05:15:34;10.95;;;7.32;;
32523;SDS011;18965;52.242;20.886;2023-06-26T05:18:00;11.45;;;7.80;;
32523;SDS011;18965;52.242;20.886;2023-06-26T05:20:25;11.55;;;6.53;;
32523;SDS011;18965;52.242;20.886;2023-06-26T05:22:51;10.23;;;7.10;;
32523;SDS011;18965;52.242;20.886;2023-06-26T05:25:18;8.77;;;7.00;;
32523;SDS011;18965;52.242;20.886;2023-06-26T05:27:46;9.43;;;7.43;;
32523;SDS011;18965;52.242;20.886;2023-06-26T05:30:14;7.88;;;7.00;;
32523;SDS011;18965;52.242;20.886;2023-06-26T05:32:40;8.98;;;7.40;;
32523;SDS011;18965;52.242;20.886;2023-06-26T05:35:07;9.32;;;6.53;;
32523;SDS011;18965;52.242;20.886;2023-06-26T05:37:33;10.50;;;7.38;;
32523;SDS011;18965;52.242;20.886;2023-06-26T05:39:59;8.73;;;6.72;;
32523;SDS011;18965;52.242;20.886;2023-06-26T05:42:29;9.30;;;6.50;;
32523;SDS011;18965;52.242;20.886;2023-06-26T05:44:55;7.07;;;6.25;;
32523;SDS011;18965;52.242;20.886;2023-06-26T05:47:21;6.18;;;5.53;;
32523;SDS011;18965;52.242;20.886;2023-06-26T05:49:46;7.55;;;5.80;;
32523;SDS011;18965;52.242;20.886;2023-06-26T05:52:12;7.38;;;5.95;;
32523;SDS011;18965;52.242;20.886;2023-06-26T05:54:39;7.22;;;5.60;;
32523;SDS011;18965;52.242;20.886;2023-06-26T05:57:05;6.85;;;5.90;;
32523;SDS011;18965;52.242;20.886;2023-06-26T05:59:31;7.10;;;5.28;;
32523;SDS011;18965;52.242;20.886;2023-06-26T06:01:57;6.30;;;5.70;;
32523;SDS011;18965;52.242;20.886;2023-06-26T06:04:23;8.30;;;5.35;;
32523;SDS011;18965;52.242;20.886;2023-06-26T06:06:49;6.70;;;5.88;;
32523;SDS011;18965;52.242;20.886;2023-06-26T06:09:15;6.63;;;5.85;;
32523;SDS011;18965;52.242;20.886;2023-06-26T06:11:40;7.88;;;6.38;;
32523;SDS011;18965;52.242;20.886;2023-06-26T06:14:06;8.10;;;5.78;;
32523;SDS011;18965;52.242;20.886;2023-06-26T06:16:32;7.25;;;5.72;;
32523;SDS011;18965;52.242;20.886;2023-06-26T06:18:58;10.52;;;5.70;;
32523;SDS011;18965;52.242;20.886;2023-06-26T06:21:23;5.20;;;4.68;;
32523;SDS011;18965;52.242;20.886;2023-06-26T06:23:49;6.13;;;4.80;;
32523;SDS011;18965;52.242;20.886;2023-06-26T06:26:15;5.95;;;5.35;;
32523;SDS011;18965;52.242;20.886;2023-06-26T06:28:40;5.40;;;4.90;;
32523;SDS011;18965;52.242;20.886;2023-06-26T06:31:06;6.15;;;5.53;;
32523;SDS011;18965;52.242;20.886;2023-06-26T06:33:32;5.90;;;5.30;;
32523;SDS011;18965;52.242;20.886;2023-06-26T06:35:58;5.05;;;4.40;;
32523;SDS011;18965;52.242;20.886;2023-06-26T06:38:23;4.35;;;3.95;;
32523;SDS011;18965;52.242;20.886;2023-06-26T06:40:49;6.68;;;4.63;;
32523;SDS011;18965;52.242;20.886;2023-06-26T06:43:15;6.55;;;4.90;;
32523;SDS011;18965;52.242;20.886;2023-06-26T06:45:40;5.30;;;4.28;;
32523;SDS011;18965;52.242;20.886;2023-06-26T06:48:06;5.25;;;4.55;;
32523;SDS011;18965;52.242;20.886;2023-06-26T06:50:32;5.80;;;4.60;;
32523;SDS011;18965;52.242;20.886;2023-06-26T06:53:14;5.22;;;4.72;;
32523;SDS011;18965;52.242;20.886;2023-06-26T06:56:27;5.53;;;4.82;;
32523;SDS011;18965;52.242;20.886;2023-06-26T06:59:07;5.53;;;4.50;;
32523;SDS011;18965;52.242;20.886;2023-06-26T07:01:33;4.72;;;4.32;;
32523;SDS011;18965;52.242;20.886;2023-06-26T07:03:59;5.50;;;4.47;;
32523;SDS011;18965;52.242;20.886;2023-06-26T07:06:24;5.30;;;4.57;;
32523;SDS011;18965;52.242;20.886;2023-06-26T07:08:50;4.35;;;3.95;;
32523;SDS011;18965;52.242;20.886;2023-06-26T07:11:16;6.88;;;4.45;;
32523;SDS011;18965;52.242;20.886;2023-06-26T07:13:42;4.60;;;4.18;;
32523;SDS011;18965;52.242;20.886;2023-06-26T07:16:07;4.97;;;4.25;;
32523;SDS011;18965;52.242;20.886;2023-06-26T07:18:36;6.28;;;4.22;;
32523;SDS011;18965;52.242;20.886;2023-06-26T07:21:03;6.13;;;4.50;;
32523;SDS011;18965;52.242;20.886;2023-06-26T07:23:29;6.03;;;4.05;;
32523;SDS011;18965;52.242;20.886;2023-06-26T07:25:55;5.60;;;4.22;;
32523;SDS011;18965;52.242;20.886;2023-06-26T07:28:21;4.60;;;4.20;;
32523;SDS011;18965;52.242;20.886;2023-06-26T07:30:46;8.35;;;4.60;;
32523;SDS011;18965;52.242;20.886;2023-06-26T07:33:12;7.50;;;4.20;;
32523;SDS011;18965;52.242;20.886;2023-06-26T07:35:38;4.53;;;4.07;;
32523;SDS011;18965;52.242;20.886;2023-06-26T07:38:03;8.40;;;4.20;;
32523;SDS011;18965;52.242;20.886;2023-06-26T07:40:29;9.30;;;6.20;;
32523;SDS011;18965;52.242;20.886;2023-06-26T07:42:55;6.47;;;5.10;;
32523;SDS011;18965;52.242;20.886;2023-06-26T07:45:22;6.78;;;4.97;;
32523;SDS011;18965;52.242;20.886;2023-06-26T07:47:48;6.10;;;4.60;;
32523;SDS011;18965;52.242;20.886;2023-06-26T07:50:14;6.40;;;4.55;;
32523;SDS011;18965;52.242;20.886;2023-06-26T07:52:44;5.13;;;4.63;;
32523;SDS011;18965;52.242;20.886;2023-06-26T07:55:10;6.28;;;5.15;;
32523;SDS011;18965;52.242;20.886;2023-06-26T07:57:36;6.13;;;4.93;;
32523;SDS011;18965;52.242;20.886;2023-06-26T08:00:02;5.32;;;4.80;;
32523;SDS011;18965;52.242;20.886;2023-06-26T08:02:31;6.13;;;4.43;;
32523;SDS011;18965;52.242;20.886;2023-06-26T08:04:57;6.05;;;4.95;;
32523;SDS011;18965;52.242;20.886;2023-06-26T08:07:23;5.18;;;4.68;;
32523;SDS011;18965;52.242;20.886;2023-06-26T08:09:48;5.82;;;4.50;;
32523;SDS011;18965;52.242;20.886;2023-06-26T08:12:14;6.43;;;4.53;;
32523;SDS011;18965;52.242;20.886;2023-06-26T08:14:40;6.53;;;5.13;;
32523;SDS011;18965;52.242;20.886;2023-06-26T08:17:05;5.68;;;4.70;;
32523;SDS011;18965;52.242;20.886;2023-06-26T08:19:31;6.93;;;4.55;;
32523;SDS011;18965;52.242;20.886;2023-06-26T08:21:57;5.75;;;4.40;;
32523;SDS011;18965;52.242;20.886;2023-06-26T08:24:22;4.03;;;3.67;;
32523;SDS011;18965;52.242;20.886;2023-06-26T08:26:48;5.57;;;4.32;;
32523;SDS011;18965;52.242;20.886;2023-06-26T08:29:14;6.20;;;5.18;;
32523;SDS011;18965;52.242;20.886;2023-06-26T08:31:40;4.90;;;4.38;;
32523;SDS011;18965;52.242;20.886;2023-06-26T08:34:07;4.85;;;4.15;;
32523;SDS011;18965;52.242;20.886;2023-06-26T08:36:33;4.55;;;3.78;;
32523;SDS011;18965;52.242;20.886;2023-06-26T08:38:59;5.15;;;4.20;;
32523;SDS011;18965;52.242;20.886;2023-06-26T08:41:25;4.22;;;3.83;;
32523;SDS011;18965;52.242;20.886;2023-06-26T08:43:50;4.30;;;3.90;;
32523;SDS011;18965;52.242;20.886;2023-06-26T08:46:17;4.97;;;4.05;;
32523;SDS011;18965;52.242;20.886;2023-06-26T08:49:30;4.40;;;3.90;;
32523;SDS011;18965;52.242;20.886;2023-06-26T08:51:36;5.45;;;4.20;;
32523;SDS011;18965;52.242;20.886;2023-06-26T08:54:05;5.45;;;4.10;;
32523;SDS011;18965;52.242;20.886;2023-06-26T08:56:37;4.57;;;3.92;;
32523;SDS011;18965;52.242;20.886;2023-06-26T08:59:07;6.22;;;4.30;;
32523;SDS011;18965;52.242;20.886;2023-06-26T09:01:35;5.20;;;3.95;;
32523;SDS011;18965;52.242;20.886;2023-06-26T09:04:01;7.20;;;4.10;;
32523;SDS011;18965;52.242;20.886;2023-06-26T09:06:27;6.38;;;4.30;;
32523;SDS011;18965;52.242;20.886;2023-06-26T09:08:53;5.20;;;4.00;;
32523;SDS011;18965;52.242;20.886;2023-06-26T09:11:19;5.43;;;3.58;;
32523;SDS011;18965;52.242;20.886;2023-06-26T09:13:44;6.55;;;4.00;;
32523;SDS011;18965;52.242;20.886;2023-06-26T09:16:12;5.20;;;4.03;;
32523;SDS011;18965;52.242;20.886;2023-06-26T09:18:40;6.55;;;3.85;;
32523;SDS011;18965;52.242;20.886;2023-06-26T09:21:07;4.97;;;4.05;;
32523;SDS011;18965;52.242;20.886;2023-06-26T09:23:34;6.82;;;4.20;;
32523;SDS011;18965;52.242;20.886;2023-06-26T09:26:02;4.72;;;3.92;;
32523;SDS011;18965;52.242;20.886;2023-06-26T09:28:29;5.05;;;3.70;;
32523;SDS011;18965;52.242;20.886;2023-06-26T09:30:55;3.65;;;3.35;;
32523;SDS011;18965;52.242;20.886;2023-06-26T09:33:26;4.05;;;2.25;;
32523;SDS011;18965;52.242;20.886;2023-06-26T09:35:51;6.00;;;4.10;;
32523;SDS011;18965;52.242;20.886;2023-06-26T09:38:17;5.22;;;3.75;;
32523;SDS011;18965;52.242;20.886;2023-06-26T09:40:43;5.07;;;3.80;;
32523;SDS011;18965;52.242;20.886;2023-06-26T09:43:10;4.57;;;3.85;;
32523;SDS011;18965;52.242;20.886;2023-06-26T09:45:39;5.28;;;4.25;;
32523;SDS011;18965;52.242;20.886;2023-06-26T09:48:05;6.85;;;4.05;;
32523;SDS011;18965;52.242;20.886;2023-06-26T09:50:33;6.57;;;3.80;;
32523;SDS011;18965;52.242;20.886;2023-06-26T09:53:09;5.47;;;3.75;;
32523;SDS011;18965;52.242;20.886;2023-06-26T09:55:36;3.83;;;3.35;;
32523;SDS011;18965;52.242;20.886;2023-06-26T09:58:02;5.03;;;3.50;;
32523;SDS011;18965;52.242;20.886;2023-06-26T10:00:30;4.05;;;3.33;;
32523;SDS011;18965;52.242;20.886;2023-06-26T10:02:56;4.97;;;3.50;;
32523;SDS011;18965;52.242;20.886;2023-06-26T10:05:23;6.72;;;4.18;;
32523;SDS011;18965;52.242;20.886;2023-06-26T10:07:48;3.78;;;3.42;;
32523;SDS011;18965;52.242;20.886;2023-06-26T10:10:15;4.43;;;3.80;;
32523;SDS011;18965;52.242;20.886;2023-06-26T10:12:42;4.07;;;3.22;;
32523;SDS011;18965;52.242;20.886;2023-06-26T10:15:10;4.45;;;3.78;;
32523;SDS011;18965;52.242;20.886;2023-06-26T10:17:38;4.88;;;3.53;;
32523;SDS011;18965;52.242;20.886;2023-06-26T10:20:08;4.40;;;3.67;;
32523;SDS011;18965;52.242;20.886;2023-06-26T10:22:37;4.63;;;3.63;;
32523;SDS011;18965;52.242;20.886;2023-06-26T10:25:12;4.40;;;3.38;;
32523;SDS011;18965;52.242;20.886;2023-06-26T10:27:42;3.70;;;3.40;;
32523;SDS011;18965;52.242;20.886;2023-06-26T10:30:16;5.03;;;3.20;;
32523;SDS011;18965;52.242;20.886;2023-06-26T10:32:46;5.25;;;3.53;;
32523;SDS011;18965;52.242;20.886;2023-06-26T10:35:13;3.72;;;3.30;;
32523;SDS011;18965;52.242;20.886;2023-06-26T10:37:46;4.28;;;3.70;;
32523;SDS011;18965;52.242;20.886;2023-06-26T10:40:13;4.20;;;3.65;;
32523;SDS011;18965;52.242;20.886;2023-06-26T10:42:46;5.05;;;3.50;;
32523;SDS011;18965;52.242;20.886;2023-06-26T10:45:15;4.68;;;3.20;;
32523;SDS011;18965;52.242;20.886;2023-06-26T10:47:43;4.78;;;3.10;;
32523;SDS011;18965;52.242;20.886;2023-06-26T10:50:23;6.65;;;3.67;;
32523;SDS011;18965;52.242;20.886;2023-06-26T11:01:22;5.50;;;3.58;;
32523;SDS011;18965;52.242;20.886;2023-06-26T11:03:49;3.85;;;3.45;;
32523;SDS011;18965;52.242;20.886;2023-06-26T11:06:27;6.20;;;3.83;;
32523;SDS011;18965;52.242;20.886;2023-06-26T11:08:54;4.32;;;3.08;;
32523;SDS011;18965;52.242;20.886;2023-06-26T11:14:16;3.97;;;3.25;;
32523;SDS011;18965;52.242;20.886;2023-06-26T11:16:43;4.43;;;3.08;;
32523;SDS011;18965;52.242;20.886;2023-06-26T11:19:09;3.65;;;3.20;;
32523;SDS011;18965;52.242;20.886;2023-06-26T11:21:37;4.85;;;3.47;;
32523;SDS011;18965;52.242;20.886;2023-06-26T11:24:04;5.43;;;3.10;;
32523;SDS011;18965;52.242;20.886;2023-06-26T11:26:42;4.35;;;3.50;;
32523;SDS011;18965;52.242;20.886;2023-06-26T11:29:09;3.40;;;3.10;;
32523;SDS011;18965;52.242;20.886;2023-06-26T11:31:36;5.57;;;3.38;;
32523;SDS011;18965;52.242;20.886;2023-06-26T11:34:04;3.80;;;3.08;;
32523;SDS011;18965;52.242;20.886;2023-06-26T11:36:32;3.83;;;3.28;;
32523;SDS011;18965;52.242;20.886;2023-06-26T11:39:02;5.10;;;3.17;;
32523;SDS011;18965;52.242;20.886;2023-06-26T11:41:34;4.10;;;3.30;;
32523;SDS011;18965;52.242;20.886;2023-06-26T11:44:04;3.60;;;3.20;;
32523;SDS011;18965;52.242;20.886;2023-06-26T11:46:30;3.63;;;2.90;;
32523;SDS011;18965;52.242;20.886;2023-06-26T11:48:57;4.90;;;3.30;;
32523;SDS011;18965;52.242;20.886;2023-06-26T11:51:23;4.72;;;3.25;;
32523;SDS011;18965;52.242;20.886;2023-06-26T11:53:49;4.60;;;3.13;;
32523;SDS011;18965;52.242;20.886;2023-06-26T11:56:15;5.25;;;3.05;;
32523;SDS011;18965;52.242;20.886;2023-06-26T11:59:01;3.58;;;3.10;;
32523;SDS011;18965;52.242;20.886;2023-06-26T12:03:58;5.53;;;3.15;;
32523;SDS011;18965;52.242;20.886;2023-06-26T12:06:29;4.28;;;3.00;;
32523;SDS011;18965;52.242;20.886;2023-06-26T12:08:57;5.25;;;3.42;;
32523;SDS011;18965;52.242;20.886;2023-06-26T12:11:25;3.13;;;2.83;;
32523;SDS011;18965;52.242;20.886;2023-06-26T12:13:53;3.25;;;2.95;;
32523;SDS011;18965;52.242;20.886;2023-06-26T12:16:19;5.03;;;3.17;;
32523;SDS011;18965;52.242;20.886;2023-06-26T12:18:46;4.38;;;3.30;;
32523;SDS011;18965;52.242;20.886;2023-06-26T12:24:02;3.53;;;3.22;;
32523;SDS011;18965;52.242;20.886;2023-06-26T12:26:32;5.53;;;3.03;;
32523;SDS011;18965;52.242;20.886;2023-06-26T12:29:08;6.07;;;3.50;;
32523;SDS011;18965;52.242;20.886;2023-06-26T12:31:39;4.10;;;3.25;;
32523;SDS011;18965;52.242;20.886;2023-06-26T12:34:12;3.97;;;3.17;;
32523;SDS011;18965;52.242;20.886;2023-06-26T12:36:42;4.60;;;3.45;;
32523;SDS011;18965;52.242;20.886;2023-06-26T12:39:14;4.30;;;3.20;;
32523;SDS011;18965;52.242;20.886;2023-06-26T12:41:54;4.25;;;3.28;;
32523;SDS011;18965;52.242;20.886;2023-06-26T12:44:25;5.85;;;3.05;;
32523;SDS011;18965;52.242;20.886;2023-06-26T12:46:56;3.97;;;3.25;;
32523;SDS011;18965;52.242;20.886;2023-06-26T12:49:35;4.18;;;3.45;;
32523;SDS011;18965;52.242;20.886;2023-06-26T12:52:03;3.80;;;3.25;;
32523;SDS011;18965;52.242;20.886;2023-06-26T12:54:36;4.28;;;3.30;;
32523;SDS011;18965;52.242;20.886;2023-06-26T12:57:03;5.43;;;3.88;;
32523;SDS011;18965;52.242;20.886;2023-06-26T12:59:29;3.83;;;3.15;;
32523;SDS011;18965;52.242;20.886;2023-06-26T13:01:56;3.50;;;3.20;;
32523;SDS011;18965;52.242;20.886;2023-06-26T13:04:22;4.32;;;3.28;;
32523;SDS011;18965;52.242;20.886;2023-06-26T13:06:49;6.10;;;3.40;;
32523;SDS011;18965;52.242;20.886;2023-06-26T13:09:15;4.05;;;3.22;;
32523;SDS011;18965;52.242;20.886;2023-06-26T13:11:41;4.15;;;3.20;;
32523;SDS011;18965;52.242;20.886;2023-06-26T13:14:07;5.80;;;3.65;;
32523;SDS011;18965;52.242;20.886;2023-06-26T13:16:33;3.50;;;3.20;;
32523;SDS011;18965;52.242;20.886;2023-06-26T13:18:59;4.07;;;3.28;;
32523;SDS011;18965;52.242;20.886;2023-06-26T13:21:26;3.92;;;3.53;;
32523;SDS011;18965;52.242;20.886;2023-06-26T13:23:52;5.45;;;3.60;;
32523;SDS011;18965;52.242;20.886;2023-06-26T13:26:19;3.42;;;3.10;;
32523;SDS011;18965;52.242;20.886;2023-06-26T13:28:46;4.68;;;3.50;;
32523;SDS011;18965;52.242;20.886;2023-06-26T13:31:12;4.43;;;3.40;;
32523;SDS011;18965;52.242;20.886;2023-06-26T13:33:38;4.30;;;3.30;;
32523;SDS011;18965;52.242;20.886;2023-06-26T13:36:04;3.53;;;3.13;;
32523;SDS011;18965;52.242;20.886;2023-06-26T13:38:32;3.75;;;2.90;;
32523;SDS011;18965;52.242;20.886;2023-06-26T13:40:59;4.30;;;3.57;;
32523;SDS011;18965;52.242;20.886;2023-06-26T13:43:26;5.43;;;3.40;;
32523;SDS011;18965;52.242;20.886;2023-06-26T13:45:53;8.93;;;3.33;;
32523;SDS011;18965;52.242;20.886;2023-06-26T13:48:19;4.07;;;3.10;;
32523;SDS011;18965;52.242;20.886;2023-06-26T13:50:45;5.68;;;3.20;;
32523;SDS011;18965;52.242;20.886;2023-06-26T13:53:12;4.32;;;3.10;;
32523;SDS011;18965;52.242;20.886;2023-06-26T13:55:38;3.70;;;3.30;;
32523;SDS011;18965;52.242;20.886;2023-06-26T13:58:04;4.43;;;3.08;;
32523;SDS011;18965;52.242;20.886;2023-06-26T14:00:34;3.60;;;3.15;;
32523;SDS011;18965;52.242;20.886;2023-06-26T14:03:01;5.97;;;3.75;;
32523;SDS011;18965;52.242;20.886;2023-06-26T14:05:28;5.60;;;3.85;;
32523;SDS011;18965;52.242;20.886;2023-06-26T14:07:54;6.95;;;3.78;;
32523;SDS011;18965;52.242;20.886;2023-06-26T14:10:21;4.50;;;3.50;;
32523;SDS011;18965;52.242;20.886;2023-06-26T14:12:47;5.18;;;3.47;;
32523;SDS011;18965;52.242;20.886;2023-06-26T14:15:14;4.80;;;3.22;;
32523;SDS011;18965;52.242;20.886;2023-06-26T14:17:40;3.63;;;3.25;;
32523;SDS011;18965;52.242;20.886;2023-06-26T14:20:06;4.22;;;3.45;;
32523;SDS011;18965;52.242;20.886;2023-06-26T14:22:40;4.35;;;3.30;;
32523;SDS011;18965;52.242;20.886;2023-06-26T14:27:33;4.60;;;3.17;;
32523;SDS011;18965;52.242;20.886;2023-06-26T14:29:59;4.18;;;3.35;;
32523;SDS011;18965;52.242;20.886;2023-06-26T14:32:25;3.95;;;3.28;;
32523;SDS011;18965;52.242;20.886;2023-06-26T14:34:51;4.15;;;3.30;;
32523;SDS011;18965;52.242;20.886;2023-06-26T14:37:17;5.63;;;3.40;;
32523;SDS011;18965;52.242;20.886;2023-06-26T14:39:44;5.85;;;3.38;;
32523;SDS011;18965;52.242;20.886;2023-06-26T14:42:10;4.97;;;3.55;;
32523;SDS011;18965;52.242;20.886;2023-06-26T14:44:35;3.80;;;3.20;;
32523;SDS011;18965;52.242;20.886;2023-06-26T14:47:01;4.82;;;3.30;;
32523;SDS011;18965;52.242;20.886;2023-06-26T14:49:27;5.70;;;3.17;;
32523;SDS011;18965;52.242;20.886;2023-06-26T14:51:52;5.15;;;3.20;;
32523;SDS011;18965;52.242;20.886;2023-06-26T14:54:18;3.97;;;3.45;;
32523;SDS011;18965;52.242;20.886;2023-06-26T14:56:44;4.10;;;3.42;;
32523;SDS011;18965;52.242;20.886;2023-06-26T14:59:11;6.00;;;3.20;;
32523;SDS011;18965;52.242;20.886;2023-06-26T15:01:37;5.32;;;3.72;;